Flight Track Log - Related Links

Times and Time Zones

All times are in EDT time to prevent confusion due to time zone crossing. See the EMD21 flight status page for this flight to view local times or setup timezone preferences in your user account.

Time Position Orientation Groundspeed Altitude Reporting Facility
EDT Latitude Longitude Course Direction KTS MPH feet Rate Location/Type
Sun 06:14:46 PM 35.5206 -97.6456 126° Southeast 137 158 1,700  Level Fort Worth Center
Sun 06:15:53 PM 35.4978 -97.5919 118° Southeast 167 192 3,000 1,009 Climbing Fort Worth Center
Sun 06:16:39 PM 35.4833 -97.5564 117° Southeast 161 185 3,600 623 Climbing Fort Worth Center
Sun 06:17:39 PM 35.4644 -97.5003 112° Southeast 183 211 4,100 650 Climbing Fort Worth Center
Sun 06:18:39 PM 35.4458 -97.4417 111° Southeast 178 205 4,900 700 Climbing Fort Worth Center
Sun 06:19:39 PM 35.4269 -97.3881 113° Southeast 173 199 5,500 750 Climbing Fort Worth Center
Sun 06:20:00 PM 35.4198 -97.3119 126° Southeast  Level Estimated
Sun 06:20:39 PM 35.4083 -97.3219 109° East 172 198 6,400  Level Fort Worth Center
Sun 06:21:39 PM 35.3894 -97.2683 113° Southeast 172 198 6,900 300 Climbing Fort Worth Center
Sun 06:22:39 PM 35.3664 -97.2100 116° Southeast 185 213 7,000 50 Climbing Fort Worth Center
Sun 06:23:39 PM 35.3456 -97.1489 113° Southeast 197 227 7,000  Level Fort Worth Center
Sun 06:24:39 PM 35.3244 -97.0878 113° Southeast 207 238 7,000  Level Fort Worth Center
Sun 06:25:39 PM 35.3033 -97.0244 112° Southeast 207 238 7,000  Level Fort Worth Center
Sun 06:26:39 PM 35.2803 -96.9583 113° Southeast 212 244 7,000 50 Level Fort Worth Center
Sun 06:27:39 PM 35.2592 -96.8950 112° Southeast 212 244 7,100 50 Climbing Fort Worth Center
Sun 06:28:39 PM 35.2381 -96.8289 111° Southeast 212 244 7,100  Level Fort Worth Center
Sun 06:29:39 PM 35.2147 -96.7656 114° Southeast 212 244 7,100 -50 Level Fort Worth Center
Sun 06:30:39 PM 35.1936 -96.6997 111° Southeast 207 238 7,000  Descending Fort Worth Center
Sun 06:31:39 PM 35.1722 -96.6364 112° Southeast 207 238 7,100 50 Climbing Fort Worth Center
Sun 06:32:39 PM 35.1489 -96.5706 113° Southeast 207 238 7,100 -100 Level Fort Worth Center
Sun 06:33:39 PM 35.1256 -96.5047 113° Southeast 212 244 6,900 -50 Descending Fort Worth Center
Sun 06:34:39 PM 35.1042 -96.4417 113° Southeast 212 244 7,000 -350 Climbing Fort Worth Center
Sun 06:35:39 PM 35.0808 -96.3733 113° Southeast 212 244 6,200 -700 Descending Fort Worth Center
Sun 06:36:39 PM 35.0614 -96.3103 111° Southeast 212 244 5,600 -650 Descending Fort Worth Center
Sun 06:37:39 PM 35.0381 -96.2472 114° Southeast 207 238 4,900 -800 Descending Fort Worth Center
Sun 06:38:39 PM 35.0186 -96.1839 111° Southeast 207 238 4,000 -850 Descending Fort Worth Center
Sun 06:39:39 PM 34.9950 -96.1158 113° Southeast 212 244 3,200 -550 Descending Fort Worth Center
Sun 06:40:39 PM 34.9714 -96.0503 114° Southeast 212 244 2,900 -300 Descending Fort Worth Center

Login

Don't have an account? Register now (free) for customized features, flight alerts, and more!